createdAt,value
2018-08-22T00:01:22.680Z,4.57
2018-08-22T00:03:50.032Z,4.33
2018-08-22T00:06:17.488Z,4.30
2018-08-22T00:08:45.719Z,4.40
2018-08-22T00:11:13.713Z,4.47
2018-08-22T00:13:42.058Z,4.30
2018-08-22T00:16:09.365Z,4.83
2018-08-22T00:18:36.696Z,4.33
2018-08-22T00:21:04.257Z,4.37
2018-08-22T00:23:31.708Z,3.90
2018-08-22T00:25:59.265Z,4.50
2018-08-22T00:28:26.687Z,3.93
2018-08-22T00:30:54.716Z,3.77
2018-08-22T00:33:22.121Z,4.53
2018-08-22T00:35:49.543Z,3.90
2018-08-22T00:38:16.913Z,3.90
2018-08-22T00:40:44.513Z,4.70
2018-08-22T00:43:13.623Z,3.70
2018-08-22T00:45:41.447Z,4.37
2018-08-22T00:48:08.991Z,4.30
2018-08-22T00:50:36.548Z,3.83
2018-08-22T00:53:04.048Z,3.40
2018-08-22T00:55:31.401Z,3.80
2018-08-22T00:57:59.575Z,3.70
2018-08-22T01:00:28.102Z,3.43
2018-08-22T01:02:56.626Z,3.60
2018-08-22T01:05:24.330Z,4.13
2018-08-22T01:07:53.071Z,3.43
2018-08-22T01:10:20.396Z,3.80
2018-08-22T01:12:47.808Z,3.80
2018-08-22T01:15:15.379Z,3.37
2018-08-22T01:17:42.795Z,3.30
2018-08-22T01:20:10.156Z,3.57
2018-08-22T01:22:37.756Z,3.63
2018-08-22T01:25:05.135Z,3.40
2018-08-22T01:27:32.506Z,3.30
2018-08-22T01:29:59.967Z,3.03
2018-08-22T01:32:27.528Z,3.47
2018-08-22T01:34:57.140Z,3.13
2018-08-22T01:37:25.393Z,3.20
2018-08-22T01:39:52.968Z,3.17
2018-08-22T01:42:20.371Z,2.90
2018-08-22T01:44:47.792Z,2.90
2018-08-22T01:47:15.589Z,3.20
2018-08-22T01:49:43.006Z,3.37
2018-08-22T01:52:10.995Z,3.10
2018-08-22T01:54:38.831Z,3.20
2018-08-22T01:57:06.712Z,2.77
2018-08-22T01:59:34.125Z,3.30
2018-08-22T02:02:03.020Z,3.20
2018-08-22T02:04:31.489Z,2.90
2018-08-22T02:06:59.594Z,3.03
2018-08-22T02:09:29.154Z,3.07
2018-08-22T02:11:58.906Z,2.83
2018-08-22T02:14:26.530Z,2.87
2018-08-22T02:16:54.179Z,3.27
2018-08-22T02:19:21.650Z,3.50
2018-08-22T02:21:50.481Z,3.40
2018-08-22T02:24:19.206Z,2.73
2018-08-22T02:26:48.845Z,3.17
2018-08-22T02:29:16.252Z,3.57
2018-08-22T02:31:43.616Z,2.90
2018-08-22T02:34:12.471Z,2.93
2018-08-22T02:36:40.683Z,3.20
2018-08-22T02:39:08.451Z,3.30
2018-08-22T02:41:35.764Z,2.33
2018-08-22T02:44:03.178Z,3.20
2018-08-22T02:46:30.574Z,3.27
2018-08-22T02:48:57.970Z,2.80
2018-08-22T02:51:25.930Z,3.30
2018-08-22T02:53:53.343Z,2.97
2018-08-22T02:56:21.208Z,2.73
2018-08-22T02:58:49.262Z,2.80
2018-08-22T03:01:17.670Z,2.53
2018-08-22T03:03:45.208Z,2.80
2018-08-22T03:06:13.897Z,2.77
2018-08-22T03:08:42.962Z,3.00
2018-08-22T03:11:11.068Z,2.77
2018-08-22T03:13:38.468Z,3.03
2018-08-22T03:16:05.983Z,2.80
2018-08-22T03:18:33.333Z,2.90
2018-08-22T03:21:01.607Z,2.60
2018-08-22T03:23:29.276Z,2.70
2018-08-22T03:25:58.680Z,2.80
2018-08-22T03:28:27.518Z,2.80
2018-08-22T03:30:55.712Z,2.97
2018-08-22T03:33:25.464Z,2.97
2018-08-22T03:35:53.040Z,3.00
2018-08-22T03:38:21.846Z,2.80
2018-08-22T03:40:51.541Z,2.70
2018-08-22T03:43:20.386Z,3.40
2018-08-22T03:45:48.318Z,2.60
2018-08-22T03:48:17.616Z,2.87
2018-08-22T03:50:45.375Z,2.80
2018-08-22T03:53:13.205Z,2.70
2018-08-22T03:55:41.106Z,3.23
2018-08-22T03:58:09.492Z,2.93
2018-08-22T04:00:37.030Z,2.87
2018-08-22T04:03:04.523Z,2.87
2018-08-22T04:05:32.251Z,2.80
2018-08-22T04:07:59.838Z,2.50
2018-08-22T04:10:27.304Z,2.77
2018-08-22T04:12:54.746Z,2.90
2018-08-22T04:15:22.178Z,3.13
2018-08-22T04:17:49.510Z,2.90
2018-08-22T04:20:16.866Z,2.70
2018-08-22T04:22:44.285Z,3.23
2018-08-22T04:25:11.677Z,3.27
2018-08-22T04:27:39.076Z,2.37
2018-08-22T04:30:06.467Z,2.90
2018-08-22T04:32:33.860Z,3.23
2018-08-22T04:35:01.210Z,2.80
2018-08-22T04:37:28.622Z,2.73
2018-08-22T04:39:56.027Z,3.10
2018-08-22T04:42:23.376Z,2.93
2018-08-22T04:44:50.989Z,3.00
2018-08-22T04:47:18.394Z,2.90
2018-08-22T04:49:45.882Z,2.87
2018-08-22T04:52:14.159Z,2.83
2018-08-22T04:54:41.674Z,3.17
2018-08-22T04:57:09.686Z,2.60
2018-08-22T04:59:37.178Z,2.97
2018-08-22T05:02:04.674Z,2.90
2018-08-22T05:04:32.238Z,2.90
2018-08-22T05:06:59.699Z,2.93
2018-08-22T05:09:27.111Z,2.80
2018-08-22T05:11:54.536Z,3.17
2018-08-22T05:14:21.963Z,3.00
2018-08-22T05:16:49.620Z,2.90
2018-08-22T05:19:18.211Z,2.83
2018-08-22T05:21:45.770Z,2.97
2018-08-22T05:24:13.577Z,2.73
2018-08-22T05:26:41.008Z,2.87
2018-08-22T05:29:08.446Z,2.53
2018-08-22T05:31:35.872Z,2.23
2018-08-22T05:34:03.387Z,2.47
2018-08-22T05:36:31.017Z,2.40
2018-08-22T05:38:58.978Z,1.83
2018-08-22T05:41:26.598Z,1.93
2018-08-22T05:43:54.174Z,2.07
2018-08-22T05:46:22.011Z,1.97
2018-08-22T05:48:49.749Z,1.70
2018-08-22T05:51:17.322Z,1.77
2018-08-22T05:53:44.905Z,1.80
2018-08-22T05:56:12.775Z,2.10
2018-08-22T05:58:40.403Z,1.70
2018-08-22T06:01:07.995Z,1.60
2018-08-22T06:03:36.444Z,1.93
2018-08-22T06:06:05.335Z,2.03
2018-08-22T06:08:32.808Z,1.67
2018-08-22T06:11:00.604Z,2.07
2018-08-22T06:13:28.195Z,1.83
2018-08-22T06:15:55.563Z,1.43
2018-08-22T06:18:23.205Z,1.30
2018-08-22T06:20:51.036Z,1.60
2018-08-22T06:23:18.943Z,1.00
2018-08-22T06:25:46.556Z,1.40
2018-08-22T06:28:14.109Z,1.27
2018-08-22T06:30:42.199Z,1.00
2018-08-22T06:33:10.028Z,1.50
2018-08-22T06:35:37.574Z,1.30
2018-08-22T06:38:05.646Z,1.50
2018-08-22T06:40:33.839Z,1.60
2018-08-22T06:43:01.914Z,1.15
2018-08-22T06:45:29.532Z,1.17
2018-08-22T06:47:57.108Z,1.00
2018-08-22T06:50:24.945Z,1.22
2018-08-22T06:52:52.698Z,1.02
2018-08-22T06:55:20.442Z,1.20
2018-08-22T06:57:48.373Z,1.00
2018-08-22T07:00:15.852Z,1.00
2018-08-22T07:02:43.370Z,1.10
2018-08-22T07:05:11.073Z,1.55
2018-08-22T07:07:38.583Z,1.05
2018-08-22T07:10:06.106Z,1.10
2018-08-22T07:12:33.617Z,1.42
2018-08-22T07:15:01.290Z,0.62
2018-08-22T07:17:28.824Z,1.02
2018-08-22T07:19:56.439Z,1.00
2018-08-22T07:22:24.033Z,0.88
2018-08-22T07:24:51.592Z,0.90
2018-08-22T07:27:20.042Z,1.30
2018-08-22T07:29:47.458Z,1.00
2018-08-22T07:32:15.931Z,1.02
2018-08-22T07:34:43.633Z,1.15
2018-08-22T07:37:11.198Z,1.07
2018-08-22T07:39:38.946Z,1.10
2018-08-22T07:42:06.451Z,1.12
2018-08-22T07:44:33.992Z,1.05
2018-08-22T07:47:01.578Z,1.00
2018-08-22T07:49:30.032Z,0.60
2018-08-22T07:51:57.850Z,1.10
2018-08-22T07:54:30.700Z,0.80
2018-08-22T07:56:58.409Z,1.00
2018-08-22T07:59:25.885Z,0.80
2018-08-22T08:01:53.503Z,0.95
2018-08-22T08:04:20.942Z,1.27
2018-08-22T08:06:48.473Z,0.93
2018-08-22T08:09:16.009Z,0.90
2018-08-22T08:11:43.468Z,0.80
2018-08-22T08:14:11.009Z,1.05
2018-08-22T08:16:38.458Z,1.10
2018-08-22T08:19:06.574Z,0.95
2018-08-22T08:21:34.066Z,0.82
2018-08-22T08:24:01.532Z,0.95
2018-08-22T08:26:29.069Z,0.82
2018-08-22T08:28:56.955Z,1.20
2018-08-22T08:31:24.660Z,1.17
2018-08-22T08:33:52.207Z,1.07
2018-08-22T08:36:20.447Z,1.10
2018-08-22T08:38:47.997Z,1.30
2018-08-22T08:41:15.533Z,1.20
2018-08-22T08:43:43.060Z,1.12
2018-08-22T08:46:10.747Z,1.00
2018-08-22T08:48:38.322Z,1.30
2018-08-22T08:51:06.142Z,1.27
2018-08-22T08:53:33.660Z,1.15
2018-08-22T08:56:01.336Z,1.40
2018-08-22T08:58:29.202Z,1.25
2018-08-22T09:00:56.831Z,1.15
2018-08-22T09:03:24.464Z,1.37
2018-08-22T09:05:52.417Z,1.20
2018-08-22T09:08:20.131Z,1.42
2018-08-22T09:10:47.658Z,1.37
2018-08-22T09:13:15.322Z,1.22
2018-08-22T09:15:43.709Z,1.27
2018-08-22T09:18:11.269Z,1.52
2018-08-22T09:20:39.569Z,1.17
2018-08-22T09:23:07.133Z,1.50
2018-08-22T09:25:35.541Z,1.15
2018-08-22T09:28:03.196Z,1.27
2018-08-22T09:30:31.760Z,1.12
2018-08-22T09:32:59.316Z,1.42
2018-08-22T09:35:27.517Z,1.00
2018-08-22T09:37:55.148Z,1.00
2018-08-22T09:40:22.727Z,1.47
2018-08-22T09:42:50.494Z,1.35
2018-08-22T09:45:18.032Z,1.33
2018-08-22T09:47:45.689Z,0.93
2018-08-22T09:50:13.608Z,1.32
2018-08-22T09:52:41.381Z,1.00
2018-08-22T09:55:09.130Z,1.25
2018-08-22T09:57:36.824Z,1.10
2018-08-22T10:00:05.630Z,1.25
2018-08-22T10:02:33.562Z,1.17
2018-08-22T10:05:00.993Z,1.07
2018-08-22T10:07:28.605Z,1.12
2018-08-22T10:09:56.309Z,1.27
2018-08-22T10:12:24.038Z,1.00
2018-08-22T10:14:51.607Z,0.80
2018-08-22T10:17:20.204Z,1.00
2018-08-22T10:19:47.768Z,1.20
2018-08-22T10:22:15.351Z,0.70
2018-08-22T10:24:42.817Z,1.00
2018-08-22T10:27:10.512Z,1.30
2018-08-22T10:29:37.967Z,0.85
2018-08-22T10:32:05.566Z,1.02
2018-08-22T10:34:33.315Z,0.80
2018-08-22T10:37:01.401Z,1.02
2018-08-22T10:39:28.984Z,0.95
2018-08-22T10:41:57.324Z,0.60
2018-08-22T10:44:25.139Z,0.90
2018-08-22T10:46:52.868Z,0.70
2018-08-22T10:49:21.242Z,0.82
2018-08-22T10:51:49.388Z,0.75
2018-08-22T10:54:17.266Z,0.85
2018-08-22T10:56:44.911Z,0.68
2018-08-22T10:59:13.514Z,0.70
2018-08-22T11:01:41.333Z,0.75
2018-08-22T11:04:08.957Z,0.70
2018-08-22T11:06:36.516Z,0.85
2018-08-22T11:09:06.268Z,0.70
2018-08-22T11:11:34.140Z,0.80
2018-08-22T11:14:01.722Z,0.75
2018-08-22T11:16:29.682Z,0.50
2018-08-22T11:18:57.406Z,0.70
2018-08-22T11:21:37.698Z,0.82
2018-08-22T11:24:17.747Z,0.60
2018-08-22T11:26:56.679Z,0.70
2018-08-22T11:29:35.564Z,0.70
2018-08-22T11:32:14.843Z,0.70
2018-08-22T11:34:45.565Z,0.72
2018-08-22T11:37:14.253Z,0.60
2018-08-22T11:39:44.309Z,0.93
2018-08-22T11:42:11.921Z,0.60
2018-08-22T11:44:39.811Z,0.60
2018-08-22T11:47:07.587Z,0.40
2018-08-22T11:49:35.233Z,0.40
2018-08-22T11:52:02.808Z,0.65
2018-08-22T11:54:31.212Z,0.70
2018-08-22T11:56:59.699Z,0.68
2018-08-22T11:59:27.360Z,0.72
2018-08-22T12:01:55.169Z,0.50
2018-08-22T12:04:23.115Z,0.80
2018-08-22T12:06:50.932Z,0.62
2018-08-22T12:09:18.615Z,0.55
2018-08-22T12:11:46.276Z,0.82
2018-08-22T12:14:13.996Z,0.72
2018-08-22T12:16:42.204Z,1.22
2018-08-22T12:19:10.177Z,0.70
2018-08-22T12:21:39.057Z,0.80
2018-08-22T12:24:06.627Z,0.70
2018-08-22T12:26:34.387Z,0.78
2018-08-22T12:29:03.651Z,0.60
2018-08-22T12:31:31.409Z,0.70
2018-08-22T12:34:01.829Z,0.70
2018-08-22T12:36:31.874Z,0.60
2018-08-22T12:39:00.205Z,0.60
2018-08-22T12:41:28.306Z,0.80
2018-08-22T12:43:56.623Z,0.53
2018-08-22T12:46:24.442Z,0.70
2018-08-22T12:48:52.166Z,0.90
2018-08-22T12:51:20.133Z,0.60
2018-08-22T12:53:47.768Z,0.93
2018-08-22T12:56:15.399Z,1.02
2018-08-22T12:58:43.120Z,1.02
2018-08-22T13:01:11.185Z,0.60
2018-08-22T13:03:39.472Z,0.70
2018-08-22T13:06:07.253Z,1.37
2018-08-22T13:08:34.734Z,0.95
2018-08-22T13:11:02.879Z,1.10
2018-08-22T13:13:30.705Z,0.70
2018-08-22T13:15:58.243Z,1.25
2018-08-22T13:18:26.722Z,1.27
2018-08-22T13:20:54.653Z,1.05
2018-08-22T13:23:22.190Z,1.30
2018-08-22T13:25:49.800Z,1.50
2018-08-22T13:28:17.508Z,1.30
2018-08-22T13:30:45.152Z,1.17
2018-08-22T13:33:12.721Z,1.65
2018-08-22T13:35:42.681Z,1.40
2018-08-22T13:38:10.298Z,1.90
2018-08-22T13:40:41.212Z,1.80
2018-08-22T13:43:10.179Z,1.35
2018-08-22T13:45:37.746Z,1.80
2018-08-22T13:48:06.611Z,1.65
2018-08-22T13:50:34.135Z,1.77
2018-08-22T13:53:01.693Z,1.30
2018-08-22T13:55:29.665Z,1.60
2018-08-22T13:57:57.238Z,1.60
2018-08-22T14:00:24.869Z,1.52
2018-08-22T14:02:52.452Z,1.82
2018-08-22T14:05:20.095Z,1.85
2018-08-22T14:07:49.481Z,1.98
2018-08-22T14:10:17.967Z,1.52
2018-08-22T14:12:46.368Z,1.70
2018-08-22T14:15:14.446Z,1.80
2018-08-22T14:17:42.851Z,1.40
2018-08-22T14:20:10.471Z,1.80
2018-08-22T14:22:38.054Z,1.80
2018-08-22T14:25:05.656Z,1.87
2018-08-22T14:27:33.811Z,1.62
2018-08-22T14:30:01.263Z,1.77
2018-08-22T14:32:28.907Z,1.55
2018-08-22T14:34:57.580Z,1.70
2018-08-22T14:37:25.197Z,1.45
2018-08-22T14:39:53.266Z,1.52
2018-08-22T14:42:20.970Z,1.65
2018-08-22T14:44:56.701Z,2.00
2018-08-22T14:47:31.206Z,1.67
2018-08-22T14:50:02.689Z,2.08
2018-08-22T14:52:38.729Z,1.82
2018-08-22T14:55:16.407Z,1.92
2018-08-22T14:57:47.715Z,1.90
2018-08-22T15:00:22.775Z,1.85
2018-08-22T15:02:56.216Z,1.87
2018-08-22T15:05:32.088Z,1.90
2018-08-22T15:10:39.899Z,1.70
2018-08-22T15:13:13.477Z,2.05
2018-08-22T15:15:46.216Z,1.75
2018-08-22T15:18:15.763Z,1.80
2018-08-22T15:20:48.035Z,2.05
2018-08-22T15:23:20.543Z,1.95
2018-08-22T15:25:54.850Z,1.75
2018-08-22T15:28:34.449Z,2.04
2018-08-22T15:31:09.675Z,1.75
2018-08-22T15:33:48.050Z,1.80
2018-08-22T15:36:22.585Z,1.92
2018-08-22T15:38:57.474Z,2.35
2018-08-22T15:41:41.709Z,2.07
2018-08-22T15:44:16.666Z,2.27
2018-08-22T15:46:48.910Z,2.50
2018-08-22T15:49:18.093Z,2.33
2018-08-22T15:51:55.740Z,2.12
2018-08-22T15:54:27.907Z,2.20
2018-08-22T15:57:00.106Z,1.90
2018-08-22T15:59:32.602Z,1.92
2018-08-22T16:02:01.344Z,1.90
2018-08-22T16:04:35.048Z,2.60
2018-08-22T16:07:07.151Z,2.67
2018-08-22T16:09:54.238Z,2.25
2018-08-22T16:15:04.081Z,2.22
2018-08-22T16:20:47.178Z,1.95
2018-08-22T16:27:15.096Z,2.10
2018-08-22T16:33:11.653Z,2.66
2018-08-22T16:35:46.852Z,2.33
2018-08-22T17:44:11.157Z,2.67
2018-08-22T17:46:42.181Z,2.60
2018-08-22T17:49:10.457Z,2.50
2018-08-22T17:52:03.804Z,3.15
2018-08-22T17:54:34.730Z,2.87
2018-08-22T17:57:15.073Z,3.08
2018-08-22T17:59:44.506Z,3.20
2018-08-22T18:02:12.845Z,2.98
2018-08-22T18:05:02.733Z,2.90
2018-08-22T18:07:32.888Z,3.10
2018-08-22T18:10:03.386Z,3.40
2018-08-22T18:12:32.823Z,3.05
2018-08-22T18:15:03.648Z,3.27
2018-08-22T18:17:32.287Z,3.12
2018-08-22T18:20:02.609Z,2.70
2018-08-22T18:22:40.070Z,3.20
2018-08-22T18:25:08.628Z,3.30
2018-08-22T18:27:40.542Z,3.05
2018-08-22T18:30:13.448Z,3.10
2018-08-22T18:32:44.371Z,3.00
2018-08-22T18:35:18.005Z,3.27
2018-08-22T18:40:33.912Z,3.07
2018-08-22T18:43:05.953Z,2.83
2018-08-22T18:45:36.021Z,3.35
2018-08-22T18:48:10.488Z,3.07
2018-08-22T18:50:58.988Z,3.30
2018-08-22T18:53:32.912Z,3.25
2018-08-22T18:56:13.325Z,3.37
2018-08-22T18:58:47.879Z,3.93
2018-08-22T19:01:19.060Z,3.37
2018-08-22T19:09:58.293Z,3.70
2018-08-22T19:12:28.992Z,3.57
2018-08-22T19:15:05.140Z,3.63
2018-08-22T19:17:41.825Z,3.57
2018-08-22T19:20:11.714Z,3.70
2018-08-22T19:22:44.375Z,4.07
2018-08-22T19:25:14.192Z,3.67
2018-08-22T19:27:49.297Z,4.00
2018-08-22T19:30:17.314Z,3.47
2018-08-22T19:32:49.170Z,3.60
2018-08-22T19:35:19.072Z,3.77
2018-08-22T19:38:25.013Z,3.67
2018-08-22T19:40:55.323Z,3.72
2018-08-22T19:43:25.415Z,4.10
2018-08-22T19:45:57.471Z,3.90
2018-08-22T19:48:28.893Z,4.00
2018-08-22T19:51:02.488Z,3.17
2018-08-22T19:53:39.752Z,3.80
2018-08-22T19:56:10.775Z,3.63
2018-08-22T19:58:43.425Z,2.97
2018-08-22T20:01:24.376Z,3.83
2018-08-22T20:03:57.729Z,3.30
2018-08-22T20:06:32.177Z,4.00
2018-08-22T20:09:02.529Z,3.70
2018-08-22T20:11:34.906Z,3.50
2018-08-22T20:14:06.318Z,4.07
2018-08-22T20:16:49.111Z,3.87
2018-08-22T20:19:18.766Z,3.63
2018-08-22T20:21:49.957Z,3.60
2018-08-22T20:27:26.613Z,4.30
2018-08-22T20:30:15.409Z,4.15
2018-08-22T21:39:27.391Z,13.07
2018-08-22T21:41:55.330Z,14.17
2018-08-22T21:44:24.134Z,14.70
2018-08-22T21:46:58.342Z,14.17
2018-08-22T21:49:26.467Z,14.63
2018-08-22T21:51:57.734Z,14.50
2018-08-22T21:54:27.105Z,15.87
2018-08-22T21:56:55.121Z,14.77
2018-08-22T21:59:24.094Z,14.23
2018-08-22T22:01:57.514Z,15.83
2018-08-22T22:04:36.805Z,15.00
2018-08-22T22:07:05.861Z,14.47
2018-08-22T22:09:34.328Z,14.50
2018-08-22T22:12:02.710Z,13.63
2018-08-22T22:14:31.580Z,14.70
2018-08-22T22:17:00.333Z,15.53
2018-08-22T22:19:30.088Z,15.17
2018-08-22T22:21:59.308Z,14.17
2018-08-22T22:24:27.931Z,14.43
2018-08-22T22:26:56.408Z,16.17
2018-08-22T22:29:26.199Z,16.37
2018-08-22T22:31:56.107Z,17.40
2018-08-22T22:34:27.385Z,17.03
2018-08-22T22:36:55.926Z,18.00
2018-08-22T22:39:39.816Z,18.37
2018-08-22T22:42:13.867Z,19.87
2018-08-22T22:44:43.910Z,20.37
2018-08-22T22:47:16.182Z,18.23
2018-08-22T22:49:43.986Z,16.13
2018-08-22T22:52:39.416Z,17.77
2018-08-22T22:55:08.335Z,18.77
2018-08-22T22:57:37.192Z,22.97
2018-08-22T23:00:07.159Z,22.40
2018-08-22T23:02:35.474Z,19.03
2018-08-22T23:05:03.354Z,21.60
2018-08-22T23:07:34.013Z,23.33
2018-08-22T23:10:04.770Z,20.27
2018-08-22T23:12:46.863Z,20.60
2018-08-22T23:15:18.127Z,22.50
2018-08-22T23:17:47.832Z,22.03
2018-08-22T23:20:37.052Z,21.40
2018-08-22T23:23:16.308Z,21.40
2018-08-22T23:25:45.399Z,22.47
2018-08-22T23:28:13.245Z,17.33
2018-08-22T23:30:41.170Z,22.17
2018-08-22T23:33:08.926Z,22.70
2018-08-22T23:35:36.748Z,25.63
2018-08-22T23:38:38.519Z,23.80
2018-08-22T23:41:06.324Z,25.83
2018-08-22T23:43:40.119Z,29.57
2018-08-22T23:46:09.315Z,24.63
2018-08-22T23:48:37.601Z,24.83
2018-08-22T23:51:08.976Z,26.63
2018-08-22T23:53:43.152Z,27.17
2018-08-22T23:56:16.340Z,29.83
2018-08-22T23:58:45.825Z,30.37
